createdAt,value
2017-09-28T00:00:11.000Z,84.75
2017-09-28T00:02:38.470Z,86.41
2017-09-28T00:05:05.957Z,86.73
2017-09-28T00:07:33.424Z,86.72
2017-09-28T00:10:00.908Z,86.62
2017-09-28T00:12:28.424Z,86.78
2017-09-28T00:14:55.917Z,86.70
2017-09-28T00:17:23.377Z,86.56
2017-09-28T00:19:50.877Z,86.50
2017-09-28T00:22:18.352Z,86.37
2017-09-28T00:24:45.820Z,86.87
2017-09-28T00:27:13.299Z,86.58
2017-09-28T00:29:40.759Z,86.68
2017-09-28T00:32:08.260Z,86.80
2017-09-28T00:34:35.732Z,88.28
2017-09-28T00:37:03.246Z,88.20
2017-09-28T00:39:30.713Z,87.52
2017-09-28T00:41:58.219Z,87.77
2017-09-28T00:44:25.685Z,87.93
2017-09-28T00:46:53.138Z,87.22
2017-09-28T00:49:20.611Z,86.49
2017-09-28T00:51:48.064Z,86.41
2017-09-28T00:54:15.653Z,86.59
2017-09-28T00:56:43.108Z,87.51
2017-09-28T00:59:10.588Z,87.14
2017-09-28T01:01:38.025Z,86.96
2017-09-28T01:04:05.485Z,86.87
2017-09-28T01:06:32.933Z,86.56
2017-09-28T01:09:00.370Z,87.15
2017-09-28T01:11:27.846Z,87.35
2017-09-28T01:13:55.286Z,86.82
2017-09-28T01:16:22.750Z,86.93
2017-09-28T01:18:50.214Z,86.37
2017-09-28T01:21:17.676Z,86.32
2017-09-28T01:23:45.124Z,87.26
2017-09-28T01:26:12.631Z,86.47
2017-09-28T01:28:40.084Z,86.38
2017-09-28T01:31:07.525Z,86.49
2017-09-28T01:33:35.090Z,86.15
2017-09-28T01:36:02.538Z,86.12
2017-09-28T01:38:30.002Z,86.43
2017-09-28T01:40:57.457Z,86.82
2017-09-28T01:43:24.922Z,86.74
2017-09-28T01:45:52.374Z,86.97
2017-09-28T01:48:19.833Z,87.48
2017-09-28T01:50:47.295Z,88.26
2017-09-28T01:53:14.766Z,87.71
2017-09-28T01:55:42.255Z,87.50
2017-09-28T01:58:09.733Z,87.09
2017-09-28T02:00:37.172Z,87.97
2017-09-28T02:03:04.651Z,88.81
2017-09-28T02:05:32.094Z,88.43
2017-09-28T02:07:59.569Z,87.88
2017-09-28T02:10:27.042Z,87.65
2017-09-28T02:12:54.515Z,88.06
2017-09-28T02:15:21.957Z,88.51
2017-09-28T02:17:49.399Z,87.92
2017-09-28T02:20:16.888Z,87.81
2017-09-28T02:22:44.334Z,87.77
2017-09-28T02:25:11.797Z,87.50
2017-09-28T02:27:39.251Z,86.75
2017-09-28T02:30:06.790Z,87.03
2017-09-28T02:32:34.247Z,87.66
2017-09-28T02:35:01.738Z,88.04
2017-09-28T02:37:29.176Z,87.94
2017-09-28T02:39:56.624Z,87.76
2017-09-28T02:42:24.119Z,87.73
2017-09-28T02:44:51.558Z,87.54
2017-09-28T02:47:19.025Z,87.36
2017-09-28T02:49:46.547Z,87.43
2017-09-28T02:52:14.009Z,87.12
2017-09-28T02:54:41.448Z,87.59
2017-09-28T02:57:09.024Z,87.69
2017-09-28T02:59:36.466Z,87.39
2017-09-28T03:02:03.946Z,87.16
2017-09-28T03:04:31.393Z,87.72
2017-09-28T03:06:58.951Z,87.41
2017-09-28T03:09:26.397Z,87.64
2017-09-28T03:11:53.864Z,87.63
2017-09-28T03:14:21.429Z,87.69
2017-09-28T03:16:48.910Z,87.65
2017-09-28T03:19:16.383Z,88.03
2017-09-28T03:21:43.839Z,88.66
2017-09-28T03:24:11.321Z,88.42
2017-09-28T03:26:38.762Z,88.97
2017-09-28T03:29:06.227Z,88.68
2017-09-28T03:31:33.721Z,88.33
2017-09-28T03:34:01.181Z,87.85
2017-09-28T03:36:28.630Z,88.21
2017-09-28T03:38:56.182Z,87.80
2017-09-28T03:41:23.629Z,87.95
2017-09-28T03:43:51.106Z,87.83
2017-09-28T03:46:18.564Z,87.52
2017-09-28T03:48:46.005Z,87.96
2017-09-28T03:51:13.469Z,87.98
2017-09-28T03:53:40.914Z,87.92
2017-09-28T03:56:08.388Z,88.02
2017-09-28T03:58:35.829Z,87.98
2017-09-28T04:01:03.293Z,88.22
2017-09-28T04:03:30.765Z,88.19
2017-09-28T04:05:58.241Z,88.14
2017-09-28T04:08:25.686Z,88.73
2017-09-28T04:10:53.133Z,88.84
2017-09-28T04:13:20.607Z,89.19
2017-09-28T04:15:48.084Z,89.58
2017-09-28T04:18:15.552Z,89.31
2017-09-28T04:20:42.994Z,88.45
2017-09-28T04:23:10.506Z,88.34
2017-09-28T04:25:37.949Z,88.34
2017-09-28T04:28:05.415Z,88.29
2017-09-28T04:30:32.873Z,88.23
2017-09-28T04:33:00.343Z,88.61
2017-09-28T04:35:27.789Z,89.76
2017-09-28T04:37:55.345Z,89.08
2017-09-28T04:40:22.802Z,90.23
2017-09-28T04:42:50.362Z,89.91
2017-09-28T04:45:17.829Z,89.20
2017-09-28T04:47:45.277Z,88.24
2017-09-28T04:50:12.841Z,87.94
2017-09-28T04:52:40.393Z,87.98
2017-09-28T04:55:07.950Z,88.53
2017-09-28T04:57:35.406Z,88.85
2017-09-28T05:00:02.884Z,89.97
2017-09-28T05:02:30.341Z,89.91
2017-09-28T05:04:57.836Z,89.11
2017-09-28T05:07:25.298Z,89.35
2017-09-28T05:09:52.770Z,89.47
2017-09-28T05:12:20.227Z,88.88
2017-09-28T05:14:47.693Z,88.56
2017-09-28T05:17:15.189Z,88.57
2017-09-28T05:19:42.637Z,88.81
2017-09-28T05:22:10.138Z,88.65
2017-09-28T05:24:37.598Z,88.93
2017-09-28T05:27:05.080Z,88.16
2017-09-28T05:29:32.606Z,88.20
2017-09-28T05:32:00.082Z,89.53
2017-09-28T05:34:27.537Z,89.77
2017-09-28T05:36:55.016Z,89.96
2017-09-28T05:39:22.477Z,89.83
2017-09-28T05:41:49.930Z,88.35
2017-09-28T05:44:17.395Z,89.18
2017-09-28T05:46:44.861Z,89.71
2017-09-28T05:49:12.329Z,89.26
2017-09-28T05:51:39.778Z,89.31
2017-09-28T05:54:07.238Z,88.65
2017-09-28T05:56:34.682Z,88.19
2017-09-28T05:59:02.240Z,88.65
2017-09-28T06:01:29.692Z,90.05
2017-09-28T06:03:57.207Z,91.30
2017-09-28T06:06:24.653Z,90.66
2017-09-28T06:08:52.144Z,89.59
2017-09-28T06:11:19.599Z,89.18
2017-09-28T06:13:47.077Z,89.42
2017-09-28T06:16:14.636Z,89.27
2017-09-28T06:18:42.108Z,88.88
2017-09-28T06:21:09.662Z,88.65
2017-09-28T06:23:37.125Z,88.34
2017-09-28T06:26:04.657Z,88.16
2017-09-28T06:28:32.124Z,88.47
2017-09-28T06:30:59.573Z,88.71
2017-09-28T06:33:27.019Z,88.48
2017-09-28T06:35:54.650Z,88.06
2017-09-28T06:38:22.089Z,87.83
2017-09-28T06:40:49.563Z,87.05
2017-09-28T06:43:17.015Z,88.45
2017-09-28T06:45:44.490Z,89.31
2017-09-28T06:48:11.934Z,89.77
2017-09-28T06:50:39.447Z,88.86
2017-09-28T06:53:07.001Z,87.46
2017-09-28T06:55:34.478Z,87.61
2017-09-28T06:58:01.921Z,87.48
2017-09-28T07:00:29.401Z,87.85
2017-09-28T07:02:56.843Z,87.07
2017-09-28T07:05:24.372Z,87.12
2017-09-28T07:07:51.828Z,86.51
2017-09-28T07:10:19.492Z,86.64
2017-09-28T07:12:46.966Z,86.52
2017-09-28T07:15:14.429Z,86.31
2017-09-28T07:17:41.882Z,86.31
2017-09-28T07:20:09.363Z,86.64
2017-09-28T07:22:36.813Z,86.13
2017-09-28T07:25:04.333Z,85.96
2017-09-28T07:27:31.778Z,86.26
2017-09-28T07:29:59.222Z,85.81
2017-09-28T07:32:26.695Z,86.18
2017-09-28T07:34:54.143Z,85.30
2017-09-28T07:37:21.617Z,84.43
2017-09-28T07:39:49.057Z,84.63
2017-09-28T07:42:16.530Z,84.11
2017-09-28T07:44:43.987Z,83.55
2017-09-28T07:47:11.472Z,83.26
2017-09-28T07:49:38.924Z,84.45
2017-09-28T07:52:06.382Z,82.40
2017-09-28T07:54:33.841Z,82.85
2017-09-28T07:57:01.640Z,83.93
2017-09-28T07:59:34.816Z,83.75
2017-09-28T08:02:02.261Z,82.92
2017-09-28T08:04:29.782Z,82.88
2017-09-28T08:06:57.269Z,83.31
2017-09-28T08:09:24.814Z,83.41
2017-09-28T08:11:52.262Z,81.89
2017-09-28T08:14:19.754Z,82.28
2017-09-28T08:16:47.193Z,82.53
2017-09-28T08:19:14.741Z,82.83
2017-09-28T08:21:42.206Z,82.96
2017-09-28T08:24:10.835Z,82.48
2017-09-28T08:26:38.796Z,83.16
2017-09-28T08:29:06.293Z,83.57
2017-09-28T08:31:33.765Z,83.87
2017-09-28T08:34:01.206Z,83.59
2017-09-28T08:36:28.665Z,83.72
2017-09-28T08:38:56.137Z,83.13
2017-09-28T08:41:23.683Z,83.26
2017-09-28T08:43:51.331Z,83.05
2017-09-28T08:46:19.715Z,82.87
2017-09-28T08:48:47.174Z,82.58
2017-09-28T08:51:14.680Z,82.48
2017-09-28T08:53:42.190Z,82.17
2017-09-28T08:56:09.641Z,80.91
2017-09-28T08:58:37.198Z,81.65
2017-09-28T09:01:04.654Z,81.66
2017-09-28T09:03:32.140Z,82.18
2017-09-28T09:05:59.578Z,82.08
2017-09-28T09:08:27.070Z,82.27
2017-09-28T09:10:54.534Z,82.22
2017-09-28T09:13:22.056Z,81.81
2017-09-28T09:15:49.500Z,81.41
2017-09-28T09:18:16.975Z,80.47
2017-09-28T09:20:44.448Z,81.05
2017-09-28T09:23:11.882Z,80.34
2017-09-28T09:25:39.355Z,79.44
2017-09-28T09:28:06.809Z,79.86
2017-09-28T09:30:34.279Z,79.74
2017-09-28T09:33:01.752Z,80.74
2017-09-28T09:35:29.268Z,79.85
2017-09-28T09:37:56.712Z,79.87
2017-09-28T09:40:24.198Z,77.84
2017-09-28T09:42:51.661Z,79.18
2017-09-28T09:45:19.141Z,79.30
2017-09-28T09:47:46.588Z,80.35
2017-09-28T09:50:14.069Z,79.90
2017-09-28T09:52:41.514Z,79.45
2017-09-28T09:55:09.010Z,79.21
2017-09-28T09:57:36.580Z,78.04
2017-09-28T10:00:04.532Z,77.97
2017-09-28T10:02:31.997Z,78.23
2017-09-28T10:04:59.448Z,77.99
2017-09-28T10:07:43.664Z,78.23
2017-09-28T10:10:14.246Z,77.81
2017-09-28T10:12:43.932Z,77.46
2017-09-28T10:15:16.780Z,77.01
2017-09-28T10:17:44.251Z,76.95
2017-09-28T10:20:11.701Z,77.11
2017-09-28T10:22:39.165Z,75.97
2017-09-28T10:25:06.617Z,77.00
2017-09-28T10:27:34.114Z,77.08
2017-09-28T10:30:01.710Z,76.78
2017-09-28T10:32:29.583Z,77.13
2017-09-28T10:34:57.614Z,77.34
2017-09-28T10:37:25.133Z,77.33
2017-09-28T10:39:52.668Z,78.35
2017-09-28T10:42:20.118Z,78.32
2017-09-28T10:44:47.600Z,78.00
2017-09-28T10:47:15.065Z,77.88
2017-09-28T10:49:42.533Z,77.52
2017-09-28T10:52:09.977Z,76.99
2017-09-28T10:54:37.452Z,76.64
2017-09-28T10:57:04.908Z,76.89
2017-09-28T10:59:32.386Z,77.02
2017-09-28T11:01:59.848Z,77.13
2017-09-28T11:04:27.365Z,76.48
2017-09-28T11:06:54.850Z,74.89
2017-09-28T11:09:22.424Z,73.75
2017-09-28T11:11:49.901Z,74.36
2017-09-28T11:14:17.416Z,74.24
2017-09-28T11:16:44.884Z,75.15
2017-09-28T11:19:12.448Z,75.00
2017-09-28T11:21:39.990Z,74.70
2017-09-28T11:24:07.438Z,74.20
2017-09-28T11:26:34.905Z,73.53
2017-09-28T11:29:02.818Z,73.20
2017-09-28T11:31:30.294Z,74.16
2017-09-28T11:33:57.742Z,73.42
2017-09-28T11:36:25.205Z,72.36
2017-09-28T11:38:52.663Z,71.95
2017-09-28T11:41:20.120Z,71.53
2017-09-28T11:43:47.612Z,71.77
2017-09-28T11:46:15.054Z,71.41
2017-09-28T11:48:42.518Z,71.38
2017-09-28T11:51:09.971Z,71.13
2017-09-28T11:53:37.444Z,69.98
2017-09-28T11:56:04.961Z,70.45
2017-09-28T11:58:32.430Z,70.40
2017-09-28T12:00:59.878Z,70.28
2017-09-28T12:03:27.363Z,69.96
2017-09-28T12:05:54.831Z,69.40
2017-09-28T12:08:22.297Z,68.71
2017-09-28T12:10:49.793Z,67.99
2017-09-28T12:13:17.266Z,68.53
2017-09-28T12:15:44.723Z,69.27
2017-09-28T12:18:12.225Z,68.96
2017-09-28T12:20:39.683Z,68.88
2017-09-28T12:23:07.176Z,68.30
2017-09-28T12:25:34.630Z,68.92
2017-09-28T12:28:02.125Z,68.56
2017-09-28T12:30:29.694Z,68.46
2017-09-28T12:32:57.133Z,68.09
2017-09-28T12:35:24.768Z,68.63
2017-09-28T12:37:52.268Z,66.94
2017-09-28T12:40:19.737Z,65.66
2017-09-28T12:42:47.182Z,66.12
2017-09-28T12:45:14.695Z,65.75
2017-09-28T12:47:43.164Z,66.81
2017-09-28T12:50:26.986Z,67.60
2017-09-28T12:52:54.452Z,68.74
2017-09-28T12:55:27.533Z,68.26
2017-09-28T12:57:55.078Z,68.06
2017-09-28T13:00:22.546Z,68.13
2017-09-28T13:02:50.074Z,67.57
2017-09-28T13:05:18.954Z,67.21
2017-09-28T13:07:46.423Z,67.93
2017-09-28T13:10:13.941Z,68.26
2017-09-28T13:12:41.444Z,68.53
2017-09-28T13:15:08.889Z,67.55
2017-09-28T13:17:36.449Z,67.92
2017-09-28T13:20:04.270Z,67.75
2017-09-28T13:22:31.787Z,67.60
2017-09-28T13:24:59.231Z,66.61
2017-09-28T13:27:26.714Z,67.20
2017-09-28T13:29:57.543Z,67.75
2017-09-28T13:32:25.091Z,67.39
2017-09-28T13:34:52.558Z,67.67
2017-09-28T13:37:20.029Z,67.00
2017-09-28T13:39:47.476Z,66.45
2017-09-28T13:42:15.029Z,65.68
2017-09-28T13:44:42.474Z,65.86
2017-09-28T13:47:09.946Z,65.28
2017-09-28T13:49:37.502Z,66.03
2017-09-28T13:52:04.980Z,65.34
2017-09-28T13:54:32.557Z,65.14
2017-09-28T13:57:00.120Z,65.01
2017-09-28T13:59:27.623Z,64.62
2017-09-28T14:01:55.102Z,65.13
2017-09-28T14:04:22.572Z,65.63
2017-09-28T14:06:50.082Z,64.95
2017-09-28T14:09:17.547Z,65.45
2017-09-28T14:11:44.996Z,65.45
2017-09-28T14:14:12.467Z,65.71
2017-09-28T14:16:40.026Z,64.93
2017-09-28T14:19:07.583Z,65.18
2017-09-28T14:21:35.029Z,65.29
2017-09-28T14:24:02.502Z,64.86
2017-09-28T14:26:29.954Z,65.67
2017-09-28T14:28:57.410Z,65.32
2017-09-28T14:31:24.880Z,65.11
2017-09-28T14:33:52.417Z,65.15
2017-09-28T14:36:19.912Z,64.65
2017-09-28T14:38:47.353Z,64.61
2017-09-28T14:41:14.838Z,64.98
2017-09-28T14:43:42.303Z,64.50
2017-09-28T14:46:09.797Z,65.07
2017-09-28T14:48:37.256Z,64.93
2017-09-28T14:51:04.707Z,65.57
2017-09-28T14:53:32.180Z,66.93
2017-09-28T14:55:59.643Z,67.33
2017-09-28T14:58:27.280Z,66.94
2017-09-28T15:00:54.648Z,67.26
2017-09-28T15:03:22.119Z,67.60
2017-09-28T15:05:49.565Z,67.76
2017-09-28T15:08:17.143Z,67.87
2017-09-28T15:10:44.632Z,67.37
2017-09-28T15:13:12.193Z,67.64
2017-09-28T15:15:39.690Z,68.17
2017-09-28T15:18:07.152Z,68.33
2017-09-28T15:20:34.710Z,68.65
2017-09-28T15:23:02.173Z,68.86
2017-09-28T15:25:29.638Z,68.77
2017-09-28T15:27:57.086Z,68.67
2017-09-28T15:30:24.554Z,68.91
2017-09-28T15:32:51.995Z,69.26
2017-09-28T15:35:19.477Z,69.12
2017-09-28T15:37:46.957Z,70.32
2017-09-28T15:40:14.413Z,70.58
2017-09-28T15:42:41.891Z,70.16
2017-09-28T15:45:09.342Z,70.90
2017-09-28T15:47:36.841Z,71.18
2017-09-28T15:50:04.766Z,71.47
2017-09-28T15:52:32.253Z,71.42
2017-09-28T15:54:59.702Z,71.87
2017-09-28T15:57:27.276Z,72.30
2017-09-28T15:59:54.727Z,72.17
2017-09-28T16:02:22.169Z,72.84
2017-09-28T16:04:49.660Z,72.97
2017-09-28T16:07:17.109Z,73.38
2017-09-28T16:09:44.642Z,73.38
2017-09-28T16:12:12.102Z,72.91
2017-09-28T16:14:39.586Z,72.80
2017-09-28T16:17:07.029Z,73.53
2017-09-28T16:19:34.497Z,73.81
2017-09-28T16:22:01.970Z,74.23
2017-09-28T16:24:29.485Z,74.27
2017-09-28T16:26:57.010Z,73.94
2017-09-28T16:29:24.506Z,74.39
2017-09-28T16:31:51.946Z,75.06
2017-09-28T16:34:19.505Z,75.48
2017-09-28T16:36:46.966Z,75.59
2017-09-28T16:39:14.402Z,75.80
2017-09-28T16:41:41.864Z,75.80
2017-09-28T16:44:09.346Z,75.79
2017-09-28T16:46:36.811Z,76.25
2017-09-28T16:49:04.263Z,75.77
2017-09-28T16:51:31.730Z,76.22
2017-09-28T16:53:59.178Z,76.51
2017-09-28T16:56:26.660Z,76.44
2017-09-28T16:58:54.249Z,76.63
2017-09-28T17:01:21.739Z,77.05
2017-09-28T17:03:49.181Z,77.05
2017-09-28T17:06:16.633Z,76.66
2017-09-28T17:08:44.121Z,76.84
2017-09-28T17:11:11.690Z,77.11
2017-09-28T17:13:39.154Z,76.82
2017-09-28T17:16:06.607Z,76.43
2017-09-28T17:18:34.107Z,76.09
2017-09-28T17:21:01.554Z,76.10
2017-09-28T17:23:29.022Z,75.80
2017-09-28T17:25:56.461Z,75.87
2017-09-28T17:28:24.073Z,75.94
2017-09-28T17:30:51.558Z,76.31
2017-09-28T17:33:19.045Z,75.73
2017-09-28T17:35:46.487Z,75.77
2017-09-28T17:38:14.002Z,75.39
2017-09-28T17:40:41.740Z,75.58
2017-09-28T17:43:09.222Z,74.79
2017-09-28T17:45:36.701Z,75.62
2017-09-28T17:48:04.150Z,76.47
2017-09-28T17:50:31.646Z,76.12
2017-09-28T17:52:59.106Z,76.89
2017-09-28T17:55:26.570Z,77.64
2017-09-28T17:57:54.047Z,77.22
2017-09-28T18:00:21.534Z,77.79
2017-09-28T18:02:49.002Z,77.42
2017-09-28T18:05:16.482Z,77.66
2017-09-28T18:07:43.954Z,77.84
2017-09-28T18:10:11.686Z,77.96
2017-09-28T18:12:39.218Z,77.11
2017-09-28T18:15:06.675Z,77.57
2017-09-28T18:17:34.171Z,77.27
2017-09-28T18:20:01.647Z,77.76
2017-09-28T18:22:29.120Z,77.33
2017-09-28T18:24:56.565Z,77.34
2017-09-28T18:27:24.030Z,77.62
2017-09-28T18:29:52.442Z,77.94
2017-09-28T18:32:19.919Z,78.56
2017-09-28T18:34:47.422Z,78.60
2017-09-28T18:37:14.889Z,78.37
2017-09-28T18:39:42.329Z,78.26
2017-09-28T18:42:09.778Z,78.78
2017-09-28T18:44:37.284Z,77.59
2017-09-28T18:47:04.726Z,78.22
2017-09-28T18:49:32.193Z,77.60
2017-09-28T18:51:59.637Z,77.95
2017-09-28T18:54:27.112Z,78.29
2017-09-28T18:56:54.557Z,78.95
2017-09-28T18:59:23.513Z,79.33
2017-09-28T19:01:50.960Z,80.00
2017-09-28T19:04:18.421Z,80.54
2017-09-28T19:06:45.914Z,80.59
2017-09-28T19:09:13.388Z,80.65
2017-09-28T19:11:40.847Z,81.19
2017-09-28T19:14:08.301Z,81.89
2017-09-28T19:16:35.762Z,82.91
2017-09-28T19:19:03.201Z,83.39
2017-09-28T19:21:30.679Z,83.48
2017-09-28T19:23:58.139Z,83.20
2017-09-28T19:26:25.713Z,83.18
2017-09-28T19:28:53.153Z,82.85
2017-09-28T19:31:20.633Z,83.04
2017-09-28T19:33:48.093Z,83.28
2017-09-28T19:36:15.586Z,82.88
2017-09-28T19:38:43.049Z,82.74
2017-09-28T19:41:10.497Z,83.01
2017-09-28T19:43:37.957Z,83.18
2017-09-28T19:46:05.397Z,83.16
2017-09-28T19:48:32.885Z,83.61
2017-09-28T19:51:00.333Z,84.58
2017-09-28T19:53:27.802Z,85.73
2017-09-28T19:55:55.264Z,85.44
2017-09-28T19:58:22.743Z,84.58
2017-09-28T20:00:50.296Z,84.43
2017-09-28T20:03:17.779Z,84.40
2017-09-28T20:05:45.237Z,84.22
2017-09-28T20:08:12.691Z,84.57
2017-09-28T20:10:40.159Z,84.36
2017-09-28T20:13:07.610Z,84.31
2017-09-28T20:15:35.078Z,84.56
2017-09-28T20:18:02.518Z,84.67
2017-09-28T20:20:29.981Z,85.12
2017-09-28T20:22:57.426Z,84.80
2017-09-28T20:25:24.898Z,85.18
2017-09-28T20:27:52.353Z,85.63
2017-09-28T20:30:19.810Z,85.89
2017-09-28T20:32:47.288Z,86.02
2017-09-28T20:35:14.749Z,86.87
2017-09-28T20:37:42.204Z,86.27
2017-09-28T20:40:09.676Z,86.45
2017-09-28T20:42:37.143Z,86.89
2017-09-28T20:45:04.589Z,86.61
2017-09-28T20:47:32.053Z,86.12
2017-09-28T20:49:59.503Z,85.78
2017-09-28T20:52:26.970Z,85.78
2017-09-28T20:54:54.424Z,85.64
2017-09-28T20:57:21.939Z,85.58
2017-09-28T20:59:49.405Z,86.01
2017-09-28T21:02:16.897Z,86.82
2017-09-28T21:04:44.441Z,86.58
2017-09-28T21:07:11.910Z,85.97
2017-09-28T21:09:39.445Z,86.19
2017-09-28T21:12:06.915Z,86.18
2017-09-28T21:14:34.396Z,86.16
2017-09-28T21:17:01.893Z,86.50
2017-09-28T21:19:29.374Z,86.06
2017-09-28T21:21:56.819Z,86.05
2017-09-28T21:24:24.287Z,86.66
2017-09-28T21:26:51.738Z,86.75
2017-09-28T21:29:19.205Z,87.15
2017-09-28T21:31:46.647Z,86.85
2017-09-28T21:34:14.157Z,86.18
2017-09-28T21:36:41.607Z,86.09
2017-09-28T21:39:09.124Z,86.35
2017-09-28T21:41:36.585Z,86.98
2017-09-28T21:44:04.038Z,86.82
2017-09-28T21:46:31.501Z,86.75
2017-09-28T21:48:58.966Z,86.75
2017-09-28T21:51:26.440Z,87.26
2017-09-28T21:53:53.882Z,86.99
2017-09-28T21:56:21.372Z,88.18
2017-09-28T21:58:49.363Z,87.91
2017-09-28T22:01:17.071Z,87.58
2017-09-28T22:03:44.565Z,87.51
2017-09-28T22:06:12.035Z,87.32
2017-09-28T22:08:39.492Z,87.27
2017-09-28T22:11:06.958Z,86.95
2017-09-28T22:13:34.440Z,87.10
2017-09-28T22:16:01.912Z,87.35
2017-09-28T22:18:29.683Z,86.93
2017-09-28T22:20:57.137Z,86.58
2017-09-28T22:23:24.606Z,86.39
2017-09-28T22:25:52.045Z,86.09
2017-09-28T22:28:19.510Z,86.33
2017-09-28T22:30:46.959Z,86.29
2017-09-28T22:33:14.433Z,86.75
2017-09-28T22:35:41.885Z,86.80
2017-09-28T22:38:09.350Z,87.18
2017-09-28T22:40:36.832Z,87.30
2017-09-28T22:43:04.343Z,87.60
2017-09-28T22:45:31.800Z,87.35
2017-09-28T22:47:59.270Z,86.98
2017-09-28T22:50:26.768Z,87.84
2017-09-28T22:52:54.213Z,87.59
2017-09-28T22:55:21.679Z,87.31
2017-09-28T22:57:49.133Z,87.01
2017-09-28T23:00:16.622Z,87.24
2017-09-28T23:02:44.093Z,86.98
2017-09-28T23:05:11.566Z,86.99
2017-09-28T23:07:39.113Z,87.33
2017-09-28T23:10:06.577Z,87.87
2017-09-28T23:12:34.036Z,87.96
2017-09-28T23:15:01.512Z,87.72
2017-09-28T23:17:28.953Z,87.68
2017-09-28T23:19:56.506Z,87.82
2017-09-28T23:22:23.954Z,87.68
2017-09-28T23:24:51.524Z,87.97
2017-09-28T23:27:18.985Z,88.38
2017-09-28T23:29:46.468Z,88.29
2017-09-28T23:32:13.915Z,87.28
2017-09-28T23:34:41.379Z,88.17
2017-09-28T23:37:08.825Z,87.73
2017-09-28T23:39:36.326Z,88.46
2017-09-28T23:42:03.765Z,88.42
2017-09-28T23:44:31.222Z,88.84
2017-09-28T23:46:58.717Z,89.38
2017-09-28T23:49:26.161Z,90.14
2017-09-28T23:51:53.635Z,89.55
2017-09-28T23:54:21.110Z,88.84
2017-09-28T23:56:48.569Z,88.00
2017-09-28T23:59:16.019Z,87.70
